sensor_id;sensor_type;location;lat;lon;timestamp;P1;durP1;ratioP1;P2;durP2;ratioP2
65162;SDS011;51751;55.714;37.436;2023-02-15T00:00:02;4.13;;;1.00;;
65162;SDS011;51751;55.714;37.436;2023-02-15T00:02:31;2.72;;;0.77;;
65162;SDS011;51751;55.714;37.436;2023-02-15T00:04:57;6.43;;;1.10;;
65162;SDS011;51751;55.714;37.436;2023-02-15T00:07:22;2.20;;;0.70;;
65162;SDS011;51751;55.714;37.436;2023-02-15T00:09:48;1.83;;;0.70;;
65162;SDS011;51751;55.714;37.436;2023-02-15T00:12:14;4.75;;;0.93;;
65162;SDS011;51751;55.714;37.436;2023-02-15T00:14:40;1.85;;;0.75;;
65162;SDS011;51751;55.714;37.436;2023-02-15T00:17:07;5.07;;;1.08;;
65162;SDS011;51751;55.714;37.436;2023-02-15T00:19:33;4.50;;;1.13;;
65162;SDS011;51751;55.714;37.436;2023-02-15T00:21:59;2.60;;;0.93;;
65162;SDS011;51751;55.714;37.436;2023-02-15T00:24:25;2.45;;;0.80;;
65162;SDS011;51751;55.714;37.436;2023-02-15T00:26:54;2.58;;;1.10;;
65162;SDS011;51751;55.714;37.436;2023-02-15T00:29:20;1.65;;;0.93;;
65162;SDS011;51751;55.714;37.436;2023-02-15T00:31:46;1.58;;;0.90;;
65162;SDS011;51751;55.714;37.436;2023-02-15T00:34:13;1.02;;;0.52;;
65162;SDS011;51751;55.714;37.436;2023-02-15T00:36:43;5.43;;;1.60;;
65162;SDS011;51751;55.714;37.436;2023-02-15T00:39:09;7.93;;;1.00;;
65162;SDS011;51751;55.714;37.436;2023-02-15T00:41:40;1.02;;;0.73;;
65162;SDS011;51751;55.714;37.436;2023-02-15T00:44:06;2.72;;;0.93;;
65162;SDS011;51751;55.714;37.436;2023-02-15T00:46:32;2.95;;;0.98;;
65162;SDS011;51751;55.714;37.436;2023-02-15T00:48:58;4.22;;;0.82;;
65162;SDS011;51751;55.714;37.436;2023-02-15T00:51:24;5.43;;;1.10;;
65162;SDS011;51751;55.714;37.436;2023-02-15T00:53:50;2.20;;;0.70;;
65162;SDS011;51751;55.714;37.436;2023-02-15T00:56:16;2.60;;;0.82;;
65162;SDS011;51751;55.714;37.436;2023-02-15T00:58:41;2.63;;;1.05;;
65162;SDS011;51751;55.714;37.436;2023-02-15T01:04:06;2.17;;;0.80;;
65162;SDS011;51751;55.714;37.436;2023-02-15T01:06:31;3.80;;;0.77;;
65162;SDS011;51751;55.714;37.436;2023-02-15T01:09:00;3.35;;;0.95;;
65162;SDS011;51751;55.714;37.436;2023-02-15T01:11:26;5.28;;;1.20;;
65162;SDS011;51751;55.714;37.436;2023-02-15T01:13:53;4.53;;;0.90;;
65162;SDS011;51751;55.714;37.436;2023-02-15T01:16:20;2.13;;;0.80;;
65162;SDS011;51751;55.714;37.436;2023-02-15T01:18:49;2.40;;;0.82;;
65162;SDS011;51751;55.714;37.436;2023-02-15T01:21:17;1.27;;;0.80;;
65162;SDS011;51751;55.714;37.436;2023-02-15T01:24:10;1.77;;;0.90;;
65162;SDS011;51751;55.714;37.436;2023-02-15T01:26:38;2.40;;;0.95;;
65162;SDS011;51751;55.714;37.436;2023-02-15T01:29:04;2.13;;;0.68;;
65162;SDS011;51751;55.714;37.436;2023-02-15T01:31:30;1.85;;;0.80;;
65162;SDS011;51751;55.714;37.436;2023-02-15T01:33:56;3.03;;;0.93;;
65162;SDS011;51751;55.714;37.436;2023-02-15T01:36:21;5.40;;;0.90;;
65162;SDS011;51751;55.714;37.436;2023-02-15T01:38:47;2.17;;;1.00;;
65162;SDS011;51751;55.714;37.436;2023-02-15T01:41:14;2.47;;;0.75;;
65162;SDS011;51751;55.714;37.436;2023-02-15T01:43:58;3.00;;;0.68;;
65162;SDS011;51751;55.714;37.436;2023-02-15T01:46:33;3.15;;;1.10;;
65162;SDS011;51751;55.714;37.436;2023-02-15T01:49:02;2.45;;;0.77;;
65162;SDS011;51751;55.714;37.436;2023-02-15T01:51:33;3.13;;;1.05;;
65162;SDS011;51751;55.714;37.436;2023-02-15T01:54:21;6.55;;;0.82;;
65162;SDS011;51751;55.714;37.436;2023-02-15T01:56:49;2.20;;;1.20;;
65162;SDS011;51751;55.714;37.436;2023-02-15T01:59:17;3.25;;;0.82;;
65162;SDS011;51751;55.714;37.436;2023-02-15T02:01:45;2.67;;;0.90;;
65162;SDS011;51751;55.714;37.436;2023-02-15T02:09:12;2.43;;;0.83;;
65162;SDS011;51751;55.714;37.436;2023-02-15T02:11:40;5.13;;;0.90;;
65162;SDS011;51751;55.714;37.436;2023-02-15T02:14:06;1.75;;;0.77;;
65162;SDS011;51751;55.714;37.436;2023-02-15T02:22:03;5.05;;;1.00;;
65162;SDS011;51751;55.714;37.436;2023-02-15T02:27:29;2.75;;;0.98;;
65162;SDS011;51751;55.714;37.436;2023-02-15T02:33:28;3.70;;;0.90;;
65162;SDS011;51751;55.714;37.436;2023-02-15T02:38:28;2.33;;;1.00;;
65162;SDS011;51751;55.714;37.436;2023-02-15T02:41:17;2.50;;;0.82;;
65162;SDS011;51751;55.714;37.436;2023-02-15T02:44:16;4.88;;;1.10;;
65162;SDS011;51751;55.714;37.436;2023-02-15T02:46:53;2.67;;;0.75;;
65162;SDS011;51751;55.714;37.436;2023-02-15T02:49:30;3.65;;;1.05;;
65162;SDS011;51751;55.714;37.436;2023-02-15T02:52:02;3.20;;;1.17;;
65162;SDS011;51751;55.714;37.436;2023-02-15T02:54:32;1.38;;;0.90;;
65162;SDS011;51751;55.714;37.436;2023-02-15T02:57:00;1.30;;;0.93;;
65162;SDS011;51751;55.714;37.436;2023-02-15T02:59:33;2.97;;;1.10;;
65162;SDS011;51751;55.714;37.436;2023-02-15T03:02:05;3.22;;;1.40;;
65162;SDS011;51751;55.714;37.436;2023-02-15T03:04:47;3.40;;;1.00;;
65162;SDS011;51751;55.714;37.436;2023-02-15T03:07:26;5.93;;;1.15;;
65162;SDS011;51751;55.714;37.436;2023-02-15T03:09:57;4.45;;;1.20;;
65162;SDS011;51751;55.714;37.436;2023-02-15T03:12:34;4.43;;;1.23;;
65162;SDS011;51751;55.714;37.436;2023-02-15T03:15:06;2.45;;;1.00;;
65162;SDS011;51751;55.714;37.436;2023-02-15T03:17:38;3.30;;;1.17;;
65162;SDS011;51751;55.714;37.436;2023-02-15T03:20:08;2.08;;;1.00;;
65162;SDS011;51751;55.714;37.436;2023-02-15T03:22:59;4.30;;;1.30;;
65162;SDS011;51751;55.714;37.436;2023-02-15T03:25:36;3.78;;;1.40;;
65162;SDS011;51751;55.714;37.436;2023-02-15T03:28:06;1.85;;;0.90;;
65162;SDS011;51751;55.714;37.436;2023-02-15T03:30:35;3.20;;;1.35;;
65162;SDS011;51751;55.714;37.436;2023-02-15T03:33:01;3.78;;;1.00;;
65162;SDS011;51751;55.714;37.436;2023-02-15T03:35:44;3.92;;;1.30;;
65162;SDS011;51751;55.714;37.436;2023-02-15T03:38:12;4.03;;;1.30;;
65162;SDS011;51751;55.714;37.436;2023-02-15T03:40:43;2.80;;;1.10;;
65162;SDS011;51751;55.714;37.436;2023-02-15T03:46:26;3.83;;;1.02;;
65162;SDS011;51751;55.714;37.436;2023-02-15T03:49:06;4.07;;;1.25;;
65162;SDS011;51751;55.714;37.436;2023-02-15T03:51:36;5.07;;;0.88;;
65162;SDS011;51751;55.714;37.436;2023-02-15T03:56:29;2.00;;;0.88;;
65162;SDS011;51751;55.714;37.436;2023-02-15T03:58:54;2.13;;;0.80;;
65162;SDS011;51751;55.714;37.436;2023-02-15T04:04:33;5.63;;;1.25;;
65162;SDS011;51751;55.714;37.436;2023-02-15T04:07:22;2.40;;;0.70;;
65162;SDS011;51751;55.714;37.436;2023-02-15T04:09:48;3.53;;;1.05;;
65162;SDS011;51751;55.714;37.436;2023-02-15T04:12:33;2.47;;;0.88;;
65162;SDS011;51751;55.714;37.436;2023-02-15T04:15:02;3.65;;;0.98;;
65162;SDS011;51751;55.714;37.436;2023-02-15T04:17:46;2.58;;;1.27;;
65162;SDS011;51751;55.714;37.436;2023-02-15T04:20:11;4.18;;;1.02;;
65162;SDS011;51751;55.714;37.436;2023-02-15T04:22:57;4.70;;;1.20;;
65162;SDS011;51751;55.714;37.436;2023-02-15T04:25:41;2.42;;;0.95;;
65162;SDS011;51751;55.714;37.436;2023-02-15T04:28:07;1.38;;;0.77;;
65162;SDS011;51751;55.714;37.436;2023-02-15T04:30:33;1.75;;;0.82;;
65162;SDS011;51751;55.714;37.436;2023-02-15T04:32:58;7.78;;;1.88;;
65162;SDS011;51751;55.714;37.436;2023-02-15T04:35:24;7.82;;;1.25;;
65162;SDS011;51751;55.714;37.436;2023-02-15T04:37:50;5.20;;;1.20;;
65162;SDS011;51751;55.714;37.436;2023-02-15T04:40:35;4.18;;;1.23;;
65162;SDS011;51751;55.714;37.436;2023-02-15T04:43:00;1.58;;;0.90;;
65162;SDS011;51751;55.714;37.436;2023-02-15T04:45:26;4.18;;;1.05;;
65162;SDS011;51751;55.714;37.436;2023-02-15T04:48:11;4.45;;;1.20;;
65162;SDS011;51751;55.714;37.436;2023-02-15T04:50:40;3.95;;;1.60;;
65162;SDS011;51751;55.714;37.436;2023-02-15T04:53:05;3.03;;;1.20;;
65162;SDS011;51751;55.714;37.436;2023-02-15T04:55:31;3.50;;;1.02;;
65162;SDS011;51751;55.714;37.436;2023-02-15T04:57:57;1.88;;;0.98;;
65162;SDS011;51751;55.714;37.436;2023-02-15T05:00:23;2.75;;;1.17;;
65162;SDS011;51751;55.714;37.436;2023-02-15T05:02:48;3.78;;;1.30;;
65162;SDS011;51751;55.714;37.436;2023-02-15T05:05:17;3.92;;;1.10;;
65162;SDS011;51751;55.714;37.436;2023-02-15T05:07:46;1.80;;;0.98;;
65162;SDS011;51751;55.714;37.436;2023-02-15T05:10:18;7.75;;;1.23;;
65162;SDS011;51751;55.714;37.436;2023-02-15T05:12:46;2.80;;;0.98;;
65162;SDS011;51751;55.714;37.436;2023-02-15T05:15:13;5.90;;;1.13;;
65162;SDS011;51751;55.714;37.436;2023-02-15T05:17:41;3.58;;;1.23;;
65162;SDS011;51751;55.714;37.436;2023-02-15T05:20:11;1.27;;;1.13;;
65162;SDS011;51751;55.714;37.436;2023-02-15T05:22:56;1.98;;;1.20;;
65162;SDS011;51751;55.714;37.436;2023-02-15T05:25:33;4.82;;;1.20;;
65162;SDS011;51751;55.714;37.436;2023-02-15T05:28:22;5.88;;;1.20;;
65162;SDS011;51751;55.714;37.436;2023-02-15T05:31:22;2.70;;;0.93;;
65162;SDS011;51751;55.714;37.436;2023-02-15T05:34:10;5.07;;;1.45;;
65162;SDS011;51751;55.714;37.436;2023-02-15T05:36:40;3.60;;;1.20;;
65162;SDS011;51751;55.714;37.436;2023-02-15T05:39:15;2.35;;;1.35;;
65162;SDS011;51751;55.714;37.436;2023-02-15T05:41:43;5.82;;;1.52;;
65162;SDS011;51751;55.714;37.436;2023-02-15T05:44:36;3.50;;;1.45;;
65162;SDS011;51751;55.714;37.436;2023-02-15T05:47:02;2.03;;;1.38;;
65162;SDS011;51751;55.714;37.436;2023-02-15T05:49:28;3.97;;;1.60;;
65162;SDS011;51751;55.714;37.436;2023-02-15T05:51:57;9.93;;;1.75;;
65162;SDS011;51751;55.714;37.436;2023-02-15T05:54:23;3.47;;;1.50;;
65162;SDS011;51751;55.714;37.436;2023-02-15T05:56:49;8.15;;;1.67;;
65162;SDS011;51751;55.714;37.436;2023-02-15T05:59:14;4.70;;;1.58;;
65162;SDS011;51751;55.714;37.436;2023-02-15T06:01:40;3.15;;;1.63;;
65162;SDS011;51751;55.714;37.436;2023-02-15T06:04:06;3.55;;;1.52;;
65162;SDS011;51751;55.714;37.436;2023-02-15T06:06:32;6.63;;;1.70;;
65162;SDS011;51751;55.714;37.436;2023-02-15T06:08:59;4.18;;;1.77;;
65162;SDS011;51751;55.714;37.436;2023-02-15T06:11:25;4.55;;;1.50;;
65162;SDS011;51751;55.714;37.436;2023-02-15T06:13:51;4.90;;;1.80;;
65162;SDS011;51751;55.714;37.436;2023-02-15T06:16:16;4.38;;;1.85;;
65162;SDS011;51751;55.714;37.436;2023-02-15T06:18:42;5.40;;;1.70;;
65162;SDS011;51751;55.714;37.436;2023-02-15T06:21:27;3.72;;;1.70;;
65162;SDS011;51751;55.714;37.436;2023-02-15T06:23:53;2.67;;;1.50;;
65162;SDS011;51751;55.714;37.436;2023-02-15T06:26:18;2.85;;;1.60;;
65162;SDS011;51751;55.714;37.436;2023-02-15T06:28:44;6.93;;;2.05;;
65162;SDS011;51751;55.714;37.436;2023-02-15T06:31:10;6.45;;;2.10;;
65162;SDS011;51751;55.714;37.436;2023-02-15T06:33:36;5.43;;;1.95;;
65162;SDS011;51751;55.714;37.436;2023-02-15T06:36:02;6.18;;;1.95;;
65162;SDS011;51751;55.714;37.436;2023-02-15T06:38:47;7.57;;;2.03;;
65162;SDS011;51751;55.714;37.436;2023-02-15T06:41:13;3.65;;;2.00;;
65162;SDS011;51751;55.714;37.436;2023-02-15T06:43:39;3.22;;;1.90;;
65162;SDS011;51751;55.714;37.436;2023-02-15T06:46:04;4.68;;;1.90;;
65162;SDS011;51751;55.714;37.436;2023-02-15T06:48:30;4.13;;;1.50;;
65162;SDS011;51751;55.714;37.436;2023-02-15T06:50:56;3.78;;;1.50;;
65162;SDS011;51751;55.714;37.436;2023-02-15T06:53:22;3.85;;;1.63;;
65162;SDS011;51751;55.714;37.436;2023-02-15T06:55:47;3.63;;;1.60;;
65162;SDS011;51751;55.714;37.436;2023-02-15T06:58:14;4.72;;;1.88;;
65162;SDS011;51751;55.714;37.436;2023-02-15T07:00:40;2.70;;;1.60;;
65162;SDS011;51751;55.714;37.436;2023-02-15T07:03:05;5.50;;;1.77;;
65162;SDS011;51751;55.714;37.436;2023-02-15T07:05:33;4.20;;;1.30;;
65162;SDS011;51751;55.714;37.436;2023-02-15T07:07:59;3.25;;;1.60;;
65162;SDS011;51751;55.714;37.436;2023-02-15T07:10:44;4.50;;;1.60;;
65162;SDS011;51751;55.714;37.436;2023-02-15T07:13:09;4.35;;;1.98;;
65162;SDS011;51751;55.714;37.436;2023-02-15T07:15:35;12.32;;;2.40;;
65162;SDS011;51751;55.714;37.436;2023-02-15T07:18:01;3.40;;;1.67;;
65162;SDS011;51751;55.714;37.436;2023-02-15T07:20:26;3.10;;;1.48;;
65162;SDS011;51751;55.714;37.436;2023-02-15T07:22:53;8.73;;;1.38;;
65162;SDS011;51751;55.714;37.436;2023-02-15T07:25:19;4.43;;;1.75;;
65162;SDS011;51751;55.714;37.436;2023-02-15T07:28:06;5.60;;;1.50;;
65162;SDS011;51751;55.714;37.436;2023-02-15T07:30:32;7.10;;;1.67;;
65162;SDS011;51751;55.714;37.436;2023-02-15T07:33:04;3.65;;;1.77;;
65162;SDS011;51751;55.714;37.436;2023-02-15T07:35:50;6.53;;;1.88;;
65162;SDS011;51751;55.714;37.436;2023-02-15T07:38:18;4.10;;;1.60;;
65162;SDS011;51751;55.714;37.436;2023-02-15T07:41:11;3.38;;;1.67;;
65162;SDS011;51751;55.714;37.436;2023-02-15T07:43:41;4.20;;;1.83;;
65162;SDS011;51751;55.714;37.436;2023-02-15T07:46:15;8.43;;;2.00;;
65162;SDS011;51751;55.714;37.436;2023-02-15T07:49:00;3.60;;;1.80;;
65162;SDS011;51751;55.714;37.436;2023-02-15T07:51:26;5.13;;;2.03;;
65162;SDS011;51751;55.714;37.436;2023-02-15T07:53:58;3.50;;;1.88;;
65162;SDS011;51751;55.714;37.436;2023-02-15T07:56:23;4.95;;;1.90;;
65162;SDS011;51751;55.714;37.436;2023-02-15T07:58:49;9.25;;;2.42;;
65162;SDS011;51751;55.714;37.436;2023-02-15T08:01:22;6.00;;;2.00;;
65162;SDS011;51751;55.714;37.436;2023-02-15T08:03:58;4.85;;;1.92;;
65162;SDS011;51751;55.714;37.436;2023-02-15T08:06:26;5.47;;;2.15;;
65162;SDS011;51751;55.714;37.436;2023-02-15T08:08:53;4.00;;;1.85;;
65162;SDS011;51751;55.714;37.436;2023-02-15T08:11:23;4.10;;;1.85;;
65162;SDS011;51751;55.714;37.436;2023-02-15T08:13:59;4.85;;;1.80;;
65162;SDS011;51751;55.714;37.436;2023-02-15T08:19:06;5.20;;;1.98;;
65162;SDS011;51751;55.714;37.436;2023-02-15T08:21:34;8.35;;;2.22;;
65162;SDS011;51751;55.714;37.436;2023-02-15T08:24:01;2.97;;;1.77;;
65162;SDS011;51751;55.714;37.436;2023-02-15T08:26:28;5.28;;;1.98;;
65162;SDS011;51751;55.714;37.436;2023-02-15T08:29:04;4.07;;;1.63;;
65162;SDS011;51751;55.714;37.436;2023-02-15T08:31:34;3.53;;;1.77;;
65162;SDS011;51751;55.714;37.436;2023-02-15T08:34:00;5.18;;;1.90;;
65162;SDS011;51751;55.714;37.436;2023-02-15T08:36:27;4.25;;;1.80;;
65162;SDS011;51751;55.714;37.436;2023-02-15T08:38:54;6.22;;;1.90;;
65162;SDS011;51751;55.714;37.436;2023-02-15T08:41:24;4.32;;;1.98;;
65162;SDS011;51751;55.714;37.436;2023-02-15T08:43:54;3.92;;;1.52;;
65162;SDS011;51751;55.714;37.436;2023-02-15T08:46:22;5.28;;;1.85;;
65162;SDS011;51751;55.714;37.436;2023-02-15T08:48:49;6.65;;;2.00;;
65162;SDS011;51751;55.714;37.436;2023-02-15T08:51:20;3.45;;;1.70;;
65162;SDS011;51751;55.714;37.436;2023-02-15T08:53:55;3.90;;;1.65;;
65162;SDS011;51751;55.714;37.436;2023-02-15T08:56:26;4.05;;;1.60;;
65162;SDS011;51751;55.714;37.436;2023-02-15T08:58:53;5.82;;;2.00;;
65162;SDS011;51751;55.714;37.436;2023-02-15T09:01:20;5.47;;;1.80;;
65162;SDS011;51751;55.714;37.436;2023-02-15T09:04:01;10.63;;;2.30;;
65162;SDS011;51751;55.714;37.436;2023-02-15T09:06:29;5.57;;;1.85;;
65162;SDS011;51751;55.714;37.436;2023-02-15T09:08:55;1.88;;;1.50;;
65162;SDS011;51751;55.714;37.436;2023-02-15T09:11:25;3.42;;;1.60;;
65162;SDS011;51751;55.714;37.436;2023-02-15T09:13:57;3.95;;;1.85;;
65162;SDS011;51751;55.714;37.436;2023-02-15T09:16:24;8.07;;;2.10;;
65162;SDS011;51751;55.714;37.436;2023-02-15T09:18:51;4.25;;;1.65;;
65162;SDS011;51751;55.714;37.436;2023-02-15T09:21:21;3.92;;;1.90;;
65162;SDS011;51751;55.714;37.436;2023-02-15T09:23:50;5.28;;;2.08;;
65162;SDS011;51751;55.714;37.436;2023-02-15T09:26:20;4.63;;;2.00;;
65162;SDS011;51751;55.714;37.436;2023-02-15T09:28:54;4.13;;;1.90;;
65162;SDS011;51751;55.714;37.436;2023-02-15T09:31:22;5.78;;;2.30;;
65162;SDS011;51751;55.714;37.436;2023-02-15T09:33:52;3.03;;;1.50;;
65162;SDS011;51751;55.714;37.436;2023-02-15T09:36:19;4.72;;;1.73;;
65162;SDS011;51751;55.714;37.436;2023-02-15T09:38:54;4.93;;;1.92;;
65162;SDS011;51751;55.714;37.436;2023-02-15T09:44:29;2.40;;;1.30;;
65162;SDS011;51751;55.714;37.436;2023-02-15T09:50:26;3.80;;;1.80;;
65162;SDS011;51751;55.714;37.436;2023-02-15T10:09:15;4.30;;;1.45;;
65162;SDS011;51751;55.714;37.436;2023-02-15T10:25:45;2.50;;;1.30;;
65162;SDS011;51751;55.714;37.436;2023-02-15T10:28:18;4.07;;;1.42;;
65162;SDS011;51751;55.714;37.436;2023-02-15T10:50:28;3.10;;;1.50;;
65162;SDS011;51751;55.714;37.436;2023-02-15T10:55:48;3.28;;;1.60;;
65162;SDS011;51751;55.714;37.436;2023-02-15T11:09:44;2.78;;;1.60;;
65162;SDS011;51751;55.714;37.436;2023-02-15T11:12:14;7.03;;;1.60;;
65162;SDS011;51751;55.714;37.436;2023-02-15T11:14:50;4.50;;;1.80;;
65162;SDS011;51751;55.714;37.436;2023-02-15T11:17:39;3.58;;;1.70;;
65162;SDS011;51751;55.714;37.436;2023-02-15T11:23:01;3.25;;;1.73;;
65162;SDS011;51751;55.714;37.436;2023-02-15T11:25:31;3.35;;;1.42;;
65162;SDS011;51751;55.714;37.436;2023-02-15T11:27:57;2.60;;;1.45;;
65162;SDS011;51751;55.714;37.436;2023-02-15T11:30:25;3.00;;;1.70;;
65162;SDS011;51751;55.714;37.436;2023-02-15T11:32:55;4.25;;;1.70;;
65162;SDS011;51751;55.714;37.436;2023-02-15T11:40:30;3.83;;;1.70;;
65162;SDS011;51751;55.714;37.436;2023-02-15T11:42:58;4.40;;;1.48;;
65162;SDS011;51751;55.714;37.436;2023-02-15T11:45:27;3.42;;;1.40;;
65162;SDS011;51751;55.714;37.436;2023-02-15T11:47:57;4.25;;;1.92;;
65162;SDS011;51751;55.714;37.436;2023-02-15T11:50:27;3.60;;;1.58;;
65162;SDS011;51751;55.714;37.436;2023-02-15T11:52:59;3.08;;;1.40;;
65162;SDS011;51751;55.714;37.436;2023-02-15T11:55:27;4.75;;;1.60;;
65162;SDS011;51751;55.714;37.436;2023-02-15T11:58:01;3.60;;;1.80;;
65162;SDS011;51751;55.714;37.436;2023-02-15T12:00:35;4.38;;;1.63;;
65162;SDS011;51751;55.714;37.436;2023-02-15T12:03:13;3.40;;;1.60;;
65162;SDS011;51751;55.714;37.436;2023-02-15T12:05:44;2.40;;;1.17;;
65162;SDS011;51751;55.714;37.436;2023-02-15T12:08:19;3.00;;;1.40;;
65162;SDS011;51751;55.714;37.436;2023-02-15T12:10:51;3.40;;;1.30;;
65162;SDS011;51751;55.714;37.436;2023-02-15T12:13:19;4.95;;;1.42;;
65162;SDS011;51751;55.714;37.436;2023-02-15T12:15:48;2.03;;;1.40;;
65162;SDS011;51751;55.714;37.436;2023-02-15T12:18:36;5.18;;;1.80;;
65162;SDS011;51751;55.714;37.436;2023-02-15T12:21:11;4.38;;;1.73;;
65162;SDS011;51751;55.714;37.436;2023-02-15T12:23:41;5.35;;;1.63;;
65162;SDS011;51751;55.714;37.436;2023-02-15T12:26:23;9.77;;;1.98;;
65162;SDS011;51751;55.714;37.436;2023-02-15T12:29:16;5.22;;;1.40;;
65162;SDS011;51751;55.714;37.436;2023-02-15T12:31:46;2.60;;;1.33;;
65162;SDS011;51751;55.714;37.436;2023-02-15T12:36:53;3.08;;;1.55;;
65162;SDS011;51751;55.714;37.436;2023-02-15T12:39:30;2.63;;;1.40;;
65162;SDS011;51751;55.714;37.436;2023-02-15T12:42:04;3.78;;;1.10;;
65162;SDS011;51751;55.714;37.436;2023-02-15T12:44:54;2.28;;;1.33;;
65162;SDS011;51751;55.714;37.436;2023-02-15T12:47:24;2.20;;;1.20;;
65162;SDS011;51751;55.714;37.436;2023-02-15T12:50:37;2.08;;;1.42;;
65162;SDS011;51751;55.714;37.436;2023-02-15T12:53:07;3.42;;;1.58;;
65162;SDS011;51751;55.714;37.436;2023-02-15T12:55:38;3.60;;;1.10;;
65162;SDS011;51751;55.714;37.436;2023-02-15T13:00:43;1.08;;;0.90;;
65162;SDS011;51751;55.714;37.436;2023-02-15T13:03:18;1.02;;;0.73;;
65162;SDS011;51751;55.714;37.436;2023-02-15T13:05:56;11.35;;;1.00;;
65162;SDS011;51751;55.714;37.436;2023-02-15T13:11:22;1.90;;;0.50;;
65162;SDS011;51751;55.714;37.436;2023-02-15T13:13:59;2.05;;;0.80;;
65162;SDS011;51751;55.714;37.436;2023-02-15T13:16:30;1.48;;;0.88;;
65162;SDS011;51751;55.714;37.436;2023-02-15T13:19:27;1.30;;;0.73;;
65162;SDS011;51751;55.714;37.436;2023-02-15T13:22:05;2.42;;;0.80;;
65162;SDS011;51751;55.714;37.436;2023-02-15T13:24:35;1.25;;;0.70;;
65162;SDS011;51751;55.714;37.436;2023-02-15T13:27:02;1.33;;;0.80;;
65162;SDS011;51751;55.714;37.436;2023-02-15T13:29:30;3.55;;;1.00;;
65162;SDS011;51751;55.714;37.436;2023-02-15T13:31:58;1.92;;;1.00;;
65162;SDS011;51751;55.714;37.436;2023-02-15T13:34:32;2.67;;;1.10;;
65162;SDS011;51751;55.714;37.436;2023-02-15T13:37:16;1.98;;;1.38;;
65162;SDS011;51751;55.714;37.436;2023-02-15T13:40:07;3.28;;;1.33;;
65162;SDS011;51751;55.714;37.436;2023-02-15T13:54:03;4.65;;;1.20;;
65162;SDS011;51751;55.714;37.436;2023-02-15T14:08:08;2.50;;;1.40;;
65162;SDS011;51751;55.714;37.436;2023-02-15T14:11:06;1.35;;;1.05;;
65162;SDS011;51751;55.714;37.436;2023-02-15T14:13:44;3.17;;;1.40;;
65162;SDS011;51751;55.714;37.436;2023-02-15T14:19:18;3.38;;;1.50;;
65162;SDS011;51751;55.714;37.436;2023-02-15T14:21:57;1.90;;;1.48;;
65162;SDS011;51751;55.714;37.436;2023-02-15T14:24:33;3.13;;;1.10;;
65162;SDS011;51751;55.714;37.436;2023-02-15T14:29:48;2.13;;;1.30;;
65162;SDS011;51751;55.714;37.436;2023-02-15T14:35:16;1.58;;;1.10;;
65162;SDS011;51751;55.714;37.436;2023-02-15T14:46:55;1.65;;;0.80;;
65162;SDS011;51751;55.714;37.436;2023-02-15T14:49:10;1.38;;;1.00;;
65162;SDS011;51751;55.714;37.436;2023-02-15T14:54:06;2.50;;;1.00;;
65162;SDS011;51751;55.714;37.436;2023-02-15T14:56:32;1.25;;;0.90;;
65162;SDS011;51751;55.714;37.436;2023-02-15T14:58:59;1.98;;;1.13;;
65162;SDS011;51751;55.714;37.436;2023-02-15T15:01:58;1.13;;;1.00;;
65162;SDS011;51751;55.714;37.436;2023-02-15T15:04:34;1.00;;;0.90;;
65162;SDS011;51751;55.714;37.436;2023-02-15T15:09:38;4.22;;;1.20;;
65162;SDS011;51751;55.714;37.436;2023-02-15T15:12:15;1.85;;;0.90;;
65162;SDS011;51751;55.714;37.436;2023-02-15T15:15:01;2.83;;;1.00;;
65162;SDS011;51751;55.714;37.436;2023-02-15T15:19:59;1.33;;;1.05;;
65162;SDS011;51751;55.714;37.436;2023-02-15T15:22:27;2.55;;;0.95;;
65162;SDS011;51751;55.714;37.436;2023-02-15T15:49:38;3.95;;;0.80;;
65162;SDS011;51751;55.714;37.436;2023-02-15T15:51:59;2.30;;;0.82;;
65162;SDS011;51751;55.714;37.436;2023-02-15T15:54:26;0.80;;;0.70;;
65162;SDS011;51751;55.714;37.436;2023-02-15T15:56:53;5.13;;;0.70;;
65162;SDS011;51751;55.714;37.436;2023-02-15T15:59:22;3.03;;;0.80;;
65162;SDS011;51751;55.714;37.436;2023-02-15T16:02:13;1.85;;;1.00;;
65162;SDS011;51751;55.714;37.436;2023-02-15T16:04:43;0.73;;;0.57;;
65162;SDS011;51751;55.714;37.436;2023-02-15T16:07:13;1.02;;;0.80;;
65162;SDS011;51751;55.714;37.436;2023-02-15T16:09:39;1.42;;;0.90;;
65162;SDS011;51751;55.714;37.436;2023-02-15T16:12:10;4.22;;;0.93;;
65162;SDS011;51751;55.714;37.436;2023-02-15T16:14:40;1.57;;;1.00;;
65162;SDS011;51751;55.714;37.436;2023-02-15T16:17:07;2.50;;;0.85;;
65162;SDS011;51751;55.714;37.436;2023-02-15T16:19:41;2.17;;;0.95;;
65162;SDS011;51751;55.714;37.436;2023-02-15T16:22:10;1.88;;;0.70;;
65162;SDS011;51751;55.714;37.436;2023-02-15T16:27:26;0.80;;;0.65;;
65162;SDS011;51751;55.714;37.436;2023-02-15T16:29:57;0.88;;;0.73;;
65162;SDS011;51751;55.714;37.436;2023-02-15T16:32:24;0.70;;;0.70;;
65162;SDS011;51751;55.714;37.436;2023-02-15T16:35:01;0.47;;;0.47;;
65162;SDS011;51751;55.714;37.436;2023-02-15T16:37:33;0.63;;;0.63;;
65162;SDS011;51751;55.714;37.436;2023-02-15T16:39:59;2.70;;;1.00;;
65162;SDS011;51751;55.714;37.436;2023-02-15T16:42:25;1.10;;;0.70;;
65162;SDS011;51751;55.714;37.436;2023-02-15T16:44:53;1.35;;;0.75;;
65162;SDS011;51751;55.714;37.436;2023-02-15T16:47:30;3.80;;;0.80;;
65162;SDS011;51751;55.714;37.436;2023-02-15T16:50:00;1.10;;;0.60;;
65162;SDS011;51751;55.714;37.436;2023-02-15T16:52:28;0.50;;;0.50;;
65162;SDS011;51751;55.714;37.436;2023-02-15T16:55:01;1.23;;;1.02;;
65162;SDS011;51751;55.714;37.436;2023-02-15T16:57:33;0.95;;;0.77;;
65162;SDS011;51751;55.714;37.436;2023-02-15T17:00:05;0.88;;;0.73;;
65162;SDS011;51751;55.714;37.436;2023-02-15T17:02:33;1.30;;;0.73;;
65162;SDS011;51751;55.714;37.436;2023-02-15T17:07:39;1.00;;;0.90;;
65162;SDS011;51751;55.714;37.436;2023-02-15T17:10:25;1.35;;;0.88;;
65162;SDS011;51751;55.714;37.436;2023-02-15T17:13:00;1.30;;;0.80;;
65162;SDS011;51751;55.714;37.436;2023-02-15T17:15:32;1.35;;;0.90;;
65162;SDS011;51751;55.714;37.436;2023-02-15T17:18:00;1.95;;;1.05;;
65162;SDS011;51751;55.714;37.436;2023-02-15T17:20:28;2.30;;;0.90;;
65162;SDS011;51751;55.714;37.436;2023-02-15T17:22:55;1.25;;;0.90;;
65162;SDS011;51751;55.714;37.436;2023-02-15T17:25:24;1.65;;;0.80;;
65162;SDS011;51751;55.714;37.436;2023-02-15T17:27:54;2.30;;;0.82;;
65162;SDS011;51751;55.714;37.436;2023-02-15T17:30:26;1.00;;;0.82;;
65162;SDS011;51751;55.714;37.436;2023-02-15T17:33:01;1.30;;;0.90;;
65162;SDS011;51751;55.714;37.436;2023-02-15T17:35:29;1.25;;;0.90;;
65162;SDS011;51751;55.714;37.436;2023-02-15T17:38:04;2.35;;;0.80;;
65162;SDS011;51751;55.714;37.436;2023-02-15T17:40:39;2.08;;;0.80;;
65162;SDS011;51751;55.714;37.436;2023-02-15T17:43:05;1.80;;;1.00;;
65162;SDS011;51751;55.714;37.436;2023-02-15T17:45:32;1.55;;;1.05;;
65162;SDS011;51751;55.714;37.436;2023-02-15T17:48:01;1.02;;;0.90;;
65162;SDS011;51751;55.714;37.436;2023-02-15T17:50:28;1.10;;;1.00;;
65162;SDS011;51751;55.714;37.436;2023-02-15T17:52:55;1.75;;;0.90;;
65162;SDS011;51751;55.714;37.436;2023-02-15T17:55:22;0.90;;;0.80;;
65162;SDS011;51751;55.714;37.436;2023-02-15T17:58:22;2.30;;;0.60;;
65162;SDS011;51751;55.714;37.436;2023-02-15T18:00:54;1.45;;;0.90;;
65162;SDS011;51751;55.714;37.436;2023-02-15T18:03:44;1.83;;;0.90;;
65162;SDS011;51751;55.714;37.436;2023-02-15T18:06:30;1.95;;;1.05;;
65162;SDS011;51751;55.714;37.436;2023-02-15T18:09:18;2.40;;;0.90;;
65162;SDS011;51751;55.714;37.436;2023-02-15T18:14:49;1.17;;;0.90;;
65162;SDS011;51751;55.714;37.436;2023-02-15T18:17:15;1.33;;;0.88;;
65162;SDS011;51751;55.714;37.436;2023-02-15T18:19:42;1.00;;;0.90;;